Time;durP1;ratioP1;P1;durP2;ratioP2;P2;SDS_P1;SDS_P2;PMS_P1;PMS_P2;Temp;Humidity;BMP_temperature;BMP_pressure;BME280_temperature;BME280_humidity;BME280_pressure;Samples;Min_cycle;Max_cycle;Signal;HPM_P1;HPM_P2
2022/08/13 12:06:04;;;;;;;0.95;0.95;;;27.80;70.90;;;;;;6303478;22;20385;-75
2022/08/13 12:08:30;;;;;;;1.02;1.02;;;27.90;72.30;;;;;;6332331;22;20048;-76
2022/08/13 12:10:56;;;;;;;1.25;1.20;;;28.00;74.20;;;;;;6330349;22;20341;-77
2022/08/13 12:13:22;;;;;;;2.33;1.13;;;28.10;68.70;;;;;;6336249;22;19995;-77
2022/08/13 12:15:48;;;;;;;1.70;1.40;;;28.00;69.60;;;;;;6335154;22;20429;-76
2022/08/13 12:18:15;;;;;;;1.58;1.10;;;28.10;73.50;;;;;;6335606;22;20009;-76
2022/08/13 12:20:45;;;;;;;1.83;1.73;;;28.20;71.80;;;;;;6335933;22;20431;-76
2022/08/13 12:23:11;;;;;;;0.80;0.80;;;28.20;72.60;;;;;;6335612;22;20003;-76
2022/08/13 12:25:37;;;;;;;1.33;1.27;;;28.20;68.10;;;;;;6335357;22;20003;-76
2022/08/13 12:28:24;;;;;;;1.20;1.10;;;28.20;70.00;;;;;;6335706;22;20715;-76
2022/08/13 12:30:56;;;;;;;1.45;1.38;;;28.30;70.40;;;;;;6336124;22;19995;-76
2022/08/13 12:33:23;;;;;;;2.20;2.10;;;28.40;71.10;;;;;;6308233;22;20055;-76
2022/08/13 12:35:50;;;;;;;1.00;1.00;;;28.50;76.10;;;;;;6335300;22;20050;-78
2022/08/13 12:38:16;;;;;;;2.17;1.20;;;28.60;70.30;;;;;;6335365;22;19999;-76
2022/08/13 12:40:44;;;;;;;2.85;1.30;;;28.80;73.90;;;;;;6336386;22;20010;-76
2022/08/13 12:43:11;;;;;;;2.45;1.00;;;28.90;74.30;;;;;;6335542;22;20028;-76
2022/08/13 12:45:38;;;;;;;1.00;1.00;;;28.90;66.50;;;;;;6307856;22;20076;-76
2022/08/13 12:48:14;;;;;;;1.00;1.00;;;29.00;69.40;;;;;;6308642;22;20010;-76
2022/08/13 12:50:43;;;;;;;1.77;0.90;;;29.00;68.30;;;;;;6336034;22;19995;-76
2022/08/13 12:53:09;;;;;;;2.28;1.35;;;29.10;70.40;;;;;;6335324;22;20002;-78
2022/08/13 12:55:37;;;;;;;1.30;1.02;;;29.00;63.50;;;;;;6308163;22;20011;-79
2022/08/13 12:58:16;;;;;;;1.55;1.45;;;29.00;63.30;;;;;;6335026;22;20426;-79
2022/08/13 13:00:44;;;;;;;1.00;1.00;;;29.10;67.60;;;;;;6335153;22;20003;-79
2022/08/13 13:03:12;;;;;;;0.90;0.90;;;29.10;65.10;;;;;;6306139;22;20055;-79
2022/08/13 13:05:38;;;;;;;1.10;1.10;;;29.20;62.90;;;;;;6332320;22;20007;-78
2022/08/13 13:08:25;;;;;;;1.85;1.10;;;29.30;63.90;;;;;;6331682;22;19999;-79
2022/08/13 13:10:56;;;;;;;2.65;1.27;;;29.20;61.40;;;;;;6306340;22;20009;-80
2022/08/13 13:13:26;;;;;;;0.73;0.73;;;29.30;62.80;;;;;;6333340;22;19995;-78
2022/08/13 13:15:54;;;;;;;1.20;1.20;;;29.30;64.60;;;;;;6329312;22;20082;-78
2022/08/13 13:18:22;;;;;;;1.40;1.30;;;29.30;65.20;;;;;;6333730;22;20504;-79
2022/08/13 13:20:52;;;;;;;1.95;1.25;;;29.50;63.90;;;;;;6334182;22;20311;-78
2022/08/13 13:23:20;;;;;;;1.33;1.23;;;29.50;64.30;;;;;;6307146;22;20088;-78
2022/08/13 13:25:47;;;;;;;3.17;1.17;;;29.50;63.00;;;;;;6333456;22;19999;-78
2022/08/13 13:28:19;;;;;;;1.15;1.15;;;29.70;64.90;;;;;;6307186;22;19999;-78
2022/08/13 13:30:46;;;;;;;1.08;1.08;;;29.70;65.00;;;;;;6335771;22;20021;-79
2022/08/13 13:33:13;;;;;;;1.67;1.65;;;29.80;64.20;;;;;;6335150;22;19994;-79
2022/08/13 13:35:40;;;;;;;1.30;1.20;;;29.80;65.70;;;;;;6335167;22;20003;-78
2022/08/13 13:38:07;;;;;;;1.10;1.10;;;29.90;63.20;;;;;;6336155;22;20003;-79
2022/08/13 13:40:38;;;;;;;1.23;1.13;;;30.00;62.40;;;;;;6333667;22;20056;-79
2022/08/13 13:43:04;;;;;;;1.77;1.00;;;29.80;61.70;;;;;;6306203;22;20003;-78
2022/08/13 13:45:30;;;;;;;0.75;0.75;;;30.00;61.10;;;;;;6334104;22;20030;-79
2022/08/13 13:47:56;;;;;;;0.85;0.70;;;30.00;63.30;;;;;;6332988;22;19999;-79
2022/08/13 13:50:22;;;;;;;1.15;1.05;;;30.00;60.60;;;;;;6334054;22;19999;-79
2022/08/13 13:52:49;;;;;;;1.02;1.02;;;30.10;63.00;;;;;;6335413;22;20132;-79
2022/08/13 13:55:15;;;;;;;1.25;1.20;;;30.20;59.40;;;;;;6335216;22;20064;-79
2022/08/13 13:57:41;;;;;;;1.02;1.02;;;30.10;58.40;;;;;;6335978;22;20440;-79
2022/08/13 14:00:12;;;;;;;1.33;1.23;;;30.20;59.30;;;;;;6310969;22;20003;-78
2022/08/13 14:02:50;;;;;;;1.17;1.17;;;30.30;59.60;;;;;;6307312;22;20003;-80
2022/08/13 14:05:17;;;;;;;1.05;0.95;;;30.30;55.60;;;;;;6334908;22;20064;-79
2022/08/13 14:07:58;;;;;;;1.23;1.20;;;30.40;57.70;;;;;;6335331;22;19995;-79
2022/08/13 14:10:26;;;;;;;0.98;0.98;;;30.50;58.10;;;;;;6335481;22;20002;-78
2022/08/13 14:12:53;;;;;;;1.00;1.00;;;30.70;59.20;;;;;;6335979;22;20011;-78
2022/08/13 14:15:19;;;;;;;1.95;1.23;;;30.80;58.90;;;;;;6335258;22;19998;-78
2022/08/13 14:17:47;;;;;;;1.15;1.15;;;30.90;60.50;;;;;;6334862;22;20311;-79
2022/08/13 14:20:14;;;;;;;1.25;1.25;;;31.10;61.80;;;;;;6305764;22;20007;-75
2022/08/13 14:22:42;;;;;;;1.10;1.00;;;31.20;60.10;;;;;;6332934;22;19999;-74
2022/08/13 14:25:14;;;;;;;1.02;1.00;;;31.00;56.40;;;;;;6333771;22;20010;-74
2022/08/13 14:27:42;;;;;;;0.90;0.90;;;31.10;56.70;;;;;;6334483;22;20330;-77
2022/08/13 14:30:10;;;;;;;1.20;1.00;;;31.20;56.10;;;;;;6333990;22;20048;-76
2022/08/13 14:32:36;;;;;;;2.83;0.82;;;31.20;55.00;;;;;;6333901;22;20590;-76
2022/08/13 14:35:14;;;;;;;2.53;0.90;;;31.20;55.60;;;;;;6333479;22;20472;-76
2022/08/13 14:37:43;;;;;;;0.98;0.98;;;31.40;55.00;;;;;;6334100;22;20003;-76
2022/08/13 14:40:12;;;;;;;1.42;1.27;;;31.60;56.40;;;;;;6305122;22;20601;-77
2022/08/13 14:42:44;;;;;;;3.00;1.00;;;31.70;55.50;;;;;;6305734;22;20369;-76
2022/08/13 14:47:56;;;;;;;0.70;0.70;;;31.90;54.70;;;;;;6335173;22;20337;-77
2022/08/13 14:50:24;;;;;;;1.20;0.90;;;32.00;55.00;;;;;;6308338;22;20323;-76
2022/08/13 14:52:50;;;;;;;1.38;1.13;;;31.90;52.60;;;;;;6335140;22;19995;-76
2022/08/13 14:55:20;;;;;;;1.10;1.00;;;31.90;53.00;;;;;;6307807;22;20011;-76
2022/08/13 14:57:46;;;;;;;0.80;0.80;;;32.10;52.00;;;;;;6334784;22;20082;-76
2022/08/13 15:00:14;;;;;;;0.80;0.80;;;32.20;50.30;;;;;;6305467;22;20049;-75
2022/08/13 15:02:45;;;;;;;1.88;0.85;;;32.30;50.40;;;;;;6333795;22;20360;-76
2022/08/13 15:05:13;;;;;;;1.65;1.17;;;32.30;49.30;;;;;;6306095;22;20342;-76
2022/08/13 15:07:47;;;;;;;1.48;0.85;;;32.50;51.50;;;;;;6305892;22;20510;-76
2022/08/13 15:10:25;;;;;;;1.00;0.85;;;32.60;50.60;;;;;;6332348;22;20051;-76
2022/08/13 15:12:52;;;;;;;0.70;0.70;;;32.70;48.90;;;;;;6332656;22;20003;-76
2022/08/13 15:15:21;;;;;;;0.70;0.70;;;32.80;47.40;;;;;;6304952;22;20009;-76
2022/08/13 15:17:49;;;;;;;1.20;1.10;;;32.70;46.50;;;;;;6333667;22;20148;-76
2022/08/13 15:20:19;;;;;;;0.93;0.90;;;32.80;46.60;;;;;;6333543;22;20006;-76
2022/08/13 15:22:46;;;;;;;0.98;0.88;;;32.90;47.20;;;;;;6332277;22;20002;-75
2022/08/13 15:25:14;;;;;;;1.00;1.00;;;33.00;49.10;;;;;;6333595;22;20003;-75
2022/08/13 15:27:39;;;;;;;1.77;1.00;;;32.90;48.90;;;;;;6333022;22;20703;-76
2022/08/13 15:30:05;;;;;;;0.95;0.95;;;32.80;49.60;;;;;;6304719;22;20014;-76
2022/08/13 15:32:31;;;;;;;1.17;1.13;;;33.00;51.00;;;;;;6305909;22;19999;-76
2022/08/13 15:34:58;;;;;;;1.20;1.10;;;32.90;50.00;;;;;;6332779;22;20007;-75
2022/08/13 15:37:25;;;;;;;1.02;0.80;;;33.10;51.70;;;;;;6333604;22;20006;-75
2022/08/13 15:39:52;;;;;;;0.90;0.85;;;33.40;51.50;;;;;;6334960;22;20037;-75
2022/08/13 15:42:19;;;;;;;2.05;0.90;;;33.60;51.60;;;;;;6334117;22;19999;-76
2022/08/13 15:44:46;;;;;;;1.25;0.90;;;33.60;50.60;;;;;;6333631;22;20072;-75
2022/08/13 15:47:16;;;;;;;1.27;1.17;;;33.30;48.00;;;;;;6334857;22;19995;-75
2022/08/13 15:49:45;;;;;;;1.60;1.02;;;33.30;48.20;;;;;;6334561;22;20057;-75
2022/08/13 15:52:17;;;;;;;0.93;0.93;;;33.10;47.00;;;;;;6307000;22;20329;-75
2022/08/13 15:54:45;;;;;;;4.43;0.90;;;33.50;47.80;;;;;;6335405;22;20003;-75
2022/08/13 15:57:11;;;;;;;1.00;0.90;;;33.60;48.00;;;;;;6334801;22;19999;-76
2022/08/13 15:59:38;;;;;;;1.23;1.13;;;33.60;48.50;;;;;;6333318;22;20003;-76
2022/08/13 16:02:05;;;;;;;1.05;1.05;;;33.70;46.90;;;;;;6334865;22;20006;-75
2022/08/13 16:04:33;;;;;;;1.55;1.13;;;33.80;48.70;;;;;;6306366;22;20007;-76
2022/08/13 16:07:07;;;;;;;1.25;1.00;;;33.70;46.50;;;;;;6333501;22;20082;-76
2022/08/13 16:09:42;;;;;;;4.00;1.10;;;33.90;47.60;;;;;;6334504;22;20434;-76
2022/08/13 16:12:07;;;;;;;1.75;1.02;;;34.10;47.30;;;;;;6334033;22;19995;-76
2022/08/13 16:14:34;;;;;;;1.08;1.02;;;34.00;45.70;;;;;;6334946;22;20005;-75
2022/08/13 16:17:02;;;;;;;3.72;0.98;;;34.10;46.10;;;;;;6333714;22;20025;-75
2022/08/13 16:19:34;;;;;;;1.20;1.10;;;34.50;46.40;;;;;;6333853;22;20003;-76
2022/08/13 16:22:00;;;;;;;1.95;1.10;;;34.60;44.20;;;;;;6306194;22;20052;-75
2022/08/13 16:24:28;;;;;;;0.82;0.80;;;34.90;45.40;;;;;;6305389;22;20031;-76
2022/08/13 16:27:01;;;;;;;1.02;1.02;;;35.20;45.20;;;;;;6306098;22;20002;-76
2022/08/13 16:29:35;;;;;;;1.80;0.90;;;35.10;44.70;;;;;;6334191;22;20007;-76
2022/08/13 16:32:06;;;;;;;0.90;0.90;;;34.60;44.50;;;;;;6306870;22;20003;-76
2022/08/13 16:34:38;;;;;;;;;;;34.80;45.00;;;;;;6334463;22;20041;-76
2022/08/13 16:37:07;;;;;;;2.08;1.20;;;34.70;43.90;;;;;;6334868;22;19903;-76
2022/08/13 16:39:33;;;;;;;1.55;1.10;;;34.60;45.00;;;;;;6334633;22;20029;-76
2022/08/13 16:42:00;;;;;;;2.45;1.45;;;34.60;44.70;;;;;;6335586;22;19999;-76
2022/08/13 16:44:26;;;;;;;1.05;1.05;;;34.70;44.10;;;;;;6334487;22;20444;-76
2022/08/13 16:46:53;;;;;;;2.15;1.10;;;34.80;44.50;;;;;;6335182;22;19999;-75
2022/08/13 16:49:21;;;;;;;1.10;1.00;;;35.10;44.10;;;;;;6307587;22;20028;-76
2022/08/13 16:51:50;;;;;;;1.10;1.00;;;35.10;44.20;;;;;;6334030;22;20445;-75
2022/08/13 16:54:16;;;;;;;1.05;1.05;;;34.80;43.50;;;;;;6334617;22;20007;-76
2022/08/13 16:56:42;;;;;;;1.20;1.10;;;34.50;44.10;;;;;;6334462;22;20368;-75
2022/08/13 16:59:08;;;;;;;1.08;1.00;;;34.60;44.00;;;;;;6305874;22;20003;-75
2022/08/13 17:01:35;;;;;;;0.90;0.90;;;34.80;44.40;;;;;;6306893;22;20010;-75
2022/08/13 17:09:30;;;;;;;1.45;1.35;;;34.70;45.10;;;;;;6335027;22;20072;-76
2022/08/13 17:11:57;;;;;;;0.80;0.80;;;34.40;44.20;;;;;;6334595;22;20672;-76
2022/08/13 17:14:26;;;;;;;1.00;1.00;;;34.10;44.80;;;;;;6334536;22;20003;-76
2022/08/13 17:16:57;;;;;;;2.22;1.20;;;33.70;45.60;;;;;;6334914;22;20047;-76
2022/08/13 17:19:27;;;;;;;;;;;33.40;46.40;;;;;;6307664;22;20007;-76
2022/08/13 17:21:56;;;;;;;1.08;0.98;;;33.00;47.50;;;;;;6306420;22;19908;-76
2022/08/13 17:24:24;;;;;;;0.98;0.98;;;32.60;47.80;;;;;;6334175;22;20006;-75
2022/08/13 17:26:51;;;;;;;1.50;1.25;;;32.30;48.90;;;;;;6335082;22;20023;-76
2022/08/13 17:29:21;;;;;;;2.45;1.00;;;32.00;50.40;;;;;;6306546;22;20600;-76
2022/08/13 17:31:53;;;;;;;2.80;1.10;;;31.60;51.40;;;;;;6334280;22;20003;-75
2022/08/13 17:34:20;;;;;;;1.13;1.10;;;31.30;52.10;;;;;;6334447;22;20340;-75
2022/08/13 17:36:51;;;;;;;1.13;1.13;;;30.80;53.70;;;;;;6307216;22;19999;-80
2022/08/13 17:39:19;;;;;;;2.60;1.25;;;30.50;54.60;;;;;;6306900;22;20010;-79
2022/08/13 17:41:47;;;;;;;1.25;1.25;;;30.20;55.60;;;;;;6335499;22;20002;-79
2022/08/13 17:44:17;;;;;;;2.42;1.20;;;29.90;56.50;;;;;;6308478;22;20342;-79
2022/08/13 17:46:44;;;;;;;1.33;1.20;;;29.60;57.20;;;;;;6335744;22;20002;-80
2022/08/13 17:49:15;;;;;;;1.48;1.10;;;29.30;58.60;;;;;;6335406;22;19995;-80
2022/08/13 17:51:46;;;;;;;2.92;1.25;;;29.00;59.50;;;;;;6335688;22;19999;-79
2022/08/13 17:54:14;;;;;;;1.50;1.40;;;28.70;61.60;;;;;;6308595;22;20311;-80
2022/08/13 17:56:41;;;;;;;1.33;1.20;;;28.50;61.70;;;;;;6335305;22;20024;-79
2022/08/13 17:59:15;;;;;;;1.40;0.93;;;28.30;63.10;;;;;;6307411;22;20009;-79
2022/08/13 18:01:41;;;;;;;2.60;1.40;;;28.20;63.50;;;;;;6307218;22;20002;-80
2022/08/13 18:04:10;;;;;;;2.67;1.10;;;28.00;64.20;;;;;;6335370;22;20099;-80
2022/08/13 18:06:37;;;;;;;1.30;1.30;;;27.80;64.70;;;;;;6307597;22;20025;-79
2022/08/13 18:09:12;;;;;;;1.33;1.13;;;27.70;65.20;;;;;;6335580;22;20469;-79
2022/08/13 18:11:39;;;;;;;1.13;1.13;;;27.60;67.10;;;;;;6335763;22;19995;-79
2022/08/13 18:14:05;;;;;;;0.93;0.93;;;27.50;66.90;;;;;;6335175;22;20086;-80
2022/08/13 18:16:32;;;;;;;3.03;1.23;;;27.30;67.20;;;;;;6335695;22;20025;-79
2022/08/13 18:19:06;;;;;;;1.00;1.00;;;27.20;68.60;;;;;;6337796;22;20494;-80
2022/08/13 18:21:32;;;;;;;3.08;1.10;;;27.00;69.10;;;;;;6310046;22;20007;-79
2022/08/13 18:24:01;;;;;;;0.98;0.98;;;26.90;70.00;;;;;;6308657;22;20008;-80
2022/08/13 18:26:29;;;;;;;1.13;1.13;;;26.70;70.70;;;;;;6308414;22;20456;-79
2022/08/13 18:29:01;;;;;;;1.00;1.00;;;26.50;71.10;;;;;;6309170;22;19998;-80
2022/08/13 18:31:28;;;;;;;6.90;1.50;;;26.30;72.50;;;;;;6308917;22;20090;-80
2022/08/13 18:33:54;;;;;;;1.50;1.40;;;26.30;73.60;;;;;;6308564;22;19998;-80
2022/08/13 18:36:20;;;;;;;1.20;1.10;;;26.20;74.40;;;;;;6337698;22;20052;-79
2022/08/13 18:38:47;;;;;;;2.63;1.13;;;26.10;74.50;;;;;;6336672;22;20025;-79
2022/08/13 18:41:13;;;;;;;1.35;1.10;;;26.00;74.60;;;;;;6336838;22;20006;-79
2022/08/13 18:43:38;;;;;;;2.35;1.20;;;25.90;75.20;;;;;;6337649;22;20025;-79
2022/08/13 18:46:05;;;;;;;1.55;1.45;;;25.80;76.30;;;;;;6337057;22;20006;-79
2022/08/13 18:48:32;;;;;;;1.20;1.10;;;25.70;76.60;;;;;;6337307;22;19998;-79
2022/08/13 18:50:58;;;;;;;1.27;1.17;;;25.60;76.90;;;;;;6337409;22;20003;-79
2022/08/13 18:53:23;;;;;;;1.20;1.20;;;25.50;78.10;;;;;;6336700;22;19999;-79
2022/08/13 18:55:50;;;;;;;1.38;1.30;;;25.50;78.90;;;;;;6309046;22;20051;-79
2022/08/13 18:58:16;;;;;;;1.40;1.30;;;25.40;79.40;;;;;;6308964;22;20132;-80
2022/08/13 19:00:41;;;;;;;1.45;1.35;;;25.40;80.00;;;;;;6308057;22;20417;-75
2022/08/13 19:03:07;;;;;;;1.30;1.30;;;25.30;80.70;;;;;;6335061;22;20010;-76
2022/08/13 19:05:33;;;;;;;1.60;1.20;;;25.20;80.20;;;;;;6333902;22;20006;-76
2022/08/13 19:08:01;;;;;;;1.40;1.30;;;25.10;79.80;;;;;;6334559;22;19995;-76
2022/08/13 19:10:27;;;;;;;1.13;0.95;;;25.10;80.30;;;;;;6306878;22;20318;-76
2022/08/13 19:12:56;;;;;;;1.45;1.20;;;25.00;80.50;;;;;;6335793;22;19999;-76
2022/08/13 19:15:22;;;;;;;1.30;1.20;;;25.00;81.50;;;;;;6307026;22;20030;-76
2022/08/13 19:17:54;;;;;;;6.13;1.40;;;24.90;81.60;;;;;;6307216;22;20598;-76
2022/08/13 19:20:22;;;;;;;2.20;1.50;;;24.90;82.40;;;;;;6334586;22;19999;-76
2022/08/13 19:22:53;;;;;;;1.40;1.30;;;24.80;83.60;;;;;;6334482;22;20081;-77
2022/08/13 19:25:20;;;;;;;2.60;1.58;;;24.80;83.40;;;;;;6335618;22;20003;-76
2022/08/13 19:27:47;;;;;;;2.33;1.40;;;24.70;84.10;;;;;;6334086;22;20002;-76
2022/08/13 19:30:14;;;;;;;2.03;1.38;;;24.60;84.40;;;;;;6335028;22;20070;-77
2022/08/13 19:32:41;;;;;;;1.48;1.38;;;24.60;85.00;;;;;;6336131;22;20045;-76
2022/08/13 19:35:10;;;;;;;1.63;1.52;;;24.50;85.20;;;;;;6336167;22;20003;-76
2022/08/13 19:37:35;;;;;;;1.48;1.48;;;24.40;85.70;;;;;;6335916;22;20498;-76
2022/08/13 19:40:05;;;;;;;1.80;1.40;;;24.40;85.70;;;;;;6336364;22;19999;-76
2022/08/13 19:42:33;;;;;;;3.25;1.48;;;24.30;86.10;;;;;;6308314;22;20056;-77
2022/08/13 19:45:08;;;;;;;1.90;1.60;;;24.40;86.50;;;;;;6308151;22;20519;-76
2022/08/13 19:47:35;;;;;;;1.60;1.50;;;24.40;87.20;;;;;;6335811;22;20299;-76
2022/08/13 19:50:02;;;;;;;1.80;1.70;;;24.30;87.10;;;;;;6308438;22;20006;-76
2022/08/13 19:52:29;;;;;;;1.70;1.60;;;24.30;88.20;;;;;;6336186;22;20082;-76
2022/08/13 19:54:55;;;;;;;1.55;1.45;;;24.20;88.50;;;;;;6338939;22;20003;-76
2022/08/13 19:57:25;;;;;;;1.60;1.50;;;24.10;88.00;;;;;;6339204;22;20007;-76
2022/08/13 19:59:59;;;;;;;1.50;1.40;;;24.10;88.70;;;;;;6339086;22;20373;-76
2022/08/13 20:02:28;;;;;;;3.63;1.75;;;24.10;89.30;;;;;;6337179;22;20026;-76
2022/08/13 20:04:55;;;;;;;1.20;1.10;;;24.00;89.80;;;;;;6310565;22;20010;-76
2022/08/13 20:07:21;;;;;;;1.63;1.50;;;23.90;90.20;;;;;;6338909;22;20426;-76
2022/08/13 20:09:47;;;;;;;1.77;1.45;;;23.90;90.30;;;;;;6338374;22;20037;-76
2022/08/13 20:12:13;;;;;;;1.88;1.75;;;23.90;90.50;;;;;;6311546;22;20427;-76
2022/08/13 20:14:42;;;;;;;1.55;1.45;;;23.80;90.70;;;;;;6339000;22;20029;-75
2022/08/13 20:17:07;;;;;;;1.40;1.30;;;23.70;90.80;;;;;;6337545;22;19999;-76
2022/08/13 20:19:33;;;;;;;1.20;1.20;;;23.70;91.10;;;;;;6310646;22;20056;-76
2022/08/13 20:22:01;;;;;;;0.95;0.95;;;23.70;91.20;;;;;;6338256;22;20442;-77
2022/08/13 20:24:27;;;;;;;1.60;1.50;;;23.70;91.40;;;;;;6311277;22;20052;-77
2022/08/13 20:26:54;;;;;;;1.65;1.55;;;23.70;91.40;;;;;;6338787;22;20087;-75
2022/08/13 20:29:20;;;;;;;1.45;1.35;;;23.60;91.20;;;;;;6338962;22;20064;-77
2022/08/13 20:31:46;;;;;;;1.60;1.50;;;23.60;91.30;;;;;;6338436;22;20068;-76
2022/08/13 20:34:12;;;;;;;1.80;1.65;;;23.60;91.10;;;;;;6338527;22;20564;-76
2022/08/13 20:36:37;;;;;;;3.22;1.40;;;23.60;91.70;;;;;;6310390;22;20007;-76
2022/08/13 20:39:03;;;;;;;1.95;1.75;;;23.60;91.90;;;;;;6332194;22;20003;-76
2022/08/13 20:41:30;;;;;;;1.50;1.40;;;23.60;92.20;;;;;;6309827;22;20320;-75
2022/08/13 20:43:58;;;;;;;1.45;1.35;;;23.60;92.00;;;;;;6309659;22;20402;-76
2022/08/13 20:46:24;;;;;;;1.48;1.48;;;23.50;92.00;;;;;;6310355;22;20006;-77
2022/08/13 20:48:50;;;;;;;1.45;1.35;;;23.50;92.10;;;;;;6306837;22;20009;-77
2022/08/13 20:51:16;;;;;;;1.48;1.38;;;23.40;92.20;;;;;;6333281;22;20074;-76
2022/08/13 20:53:41;;;;;;;1.95;1.48;;;23.50;92.60;;;;;;6332972;22;20002;-77
2022/08/13 20:56:08;;;;;;;1.92;1.55;;;23.50;92.90;;;;;;6332858;22;19999;-76
2022/08/13 20:58:33;;;;;;;3.63;1.33;;;23.60;92.70;;;;;;6332313;22;20071;-76
2022/08/13 21:00:59;;;;;;;1.25;1.25;;;23.70;93.50;;;;;;6332915;22;20426;-77
2022/08/13 21:03:25;;;;;;;2.78;1.60;;;23.70;93.70;;;;;;6332517;22;20071;-77
2022/08/13 21:05:51;;;;;;;3.95;1.70;;;23.70;94.00;;;;;;6331537;22;20045;-76
2022/08/13 21:08:18;;;;;;;1.23;1.23;;;23.80;93.60;;;;;;6332654;22;19998;-77
2022/08/13 21:10:44;;;;;;;1.17;1.17;;;23.70;92.90;;;;;;6307124;22;20010;-77
2022/08/13 21:13:10;;;;;;;1.35;1.30;;;23.60;93.10;;;;;;6335500;22;19998;-76
2022/08/13 21:15:36;;;;;;;2.03;1.90;;;23.70;93.10;;;;;;6335363;22;20002;-77
2022/08/13 21:18:01;;;;;;;1.88;1.60;;;23.70;93.20;;;;;;6307775;22;20330;-76
2022/08/13 21:20:29;;;;;;;1.67;1.58;;;23.70;92.60;;;;;;6335680;22;20003;-77
2022/08/13 21:22:56;;;;;;;1.67;1.58;;;23.70;92.80;;;;;;6335315;22;20007;-76
2022/08/13 21:25:27;;;;;;;1.73;1.63;;;23.70;93.30;;;;;;6335122;22;20037;-77
2022/08/13 21:27:57;;;;;;;5.00;1.50;;;23.70;93.20;;;;;;6335597;22;19999;-76
2022/08/13 21:30:27;;;;;;;1.17;1.17;;;23.60;93.40;;;;;;6335426;22;20025;-76
2022/08/13 21:32:57;;;;;;;2.00;1.27;;;23.50;93.70;;;;;;6307384;22;20022;-77
2022/08/13 21:35:24;;;;;;;1.30;1.30;;;23.50;93.90;;;;;;6334688;22;20006;-76
2022/08/13 21:37:55;;;;;;;1.52;1.45;;;23.50;94.20;;;;;;6308139;22;20350;-76
2022/08/13 21:40:22;;;;;;;1.27;1.23;;;23.40;94.40;;;;;;6305801;22;20582;-76
2022/08/13 21:42:49;;;;;;;2.08;1.50;;;23.40;94.40;;;;;;6307454;22;20052;-76
2022/08/13 21:45:15;;;;;;;1.45;1.20;;;23.40;94.60;;;;;;6307742;22;20563;-78
2022/08/13 21:47:46;;;;;;;1.40;1.30;;;23.30;94.90;;;;;;6334303;22;20038;-78
2022/08/13 21:50:24;;;;;;;1.40;1.40;;;23.30;95.30;;;;;;6307456;22;20007;-78
2022/08/13 21:52:50;;;;;;;2.63;1.50;;;23.20;96.00;;;;;;6335335;22;20119;-78
2022/08/13 21:55:16;;;;;;;1.90;1.17;;;23.20;96.40;;;;;;6336075;22;20029;-78
2022/08/13 21:57:42;;;;;;;1.67;1.58;;;23.10;96.50;;;;;;6307327;22;20026;-76
2022/08/13 22:00:36;;;;;;;4.38;1.50;;;23.10;96.80;;;;;;6335092;22;20591;-76
2022/08/13 22:03:04;;;;;;;1.23;1.23;;;23.10;97.00;;;;;;6307842;22;20007;-78
2022/08/13 22:05:32;;;;;;;1.65;1.55;;;23.00;96.90;;;;;;6334567;22;20007;-78
2022/08/13 22:08:02;;;;;;;1.52;1.42;;;23.00;97.10;;;;;;6307153;22;20006;-75
2022/08/13 22:10:34;;;;;;;1.42;1.33;;;22.90;97.40;;;;;;6307521;22;20006;-77
2022/08/13 22:13:11;;;;;;;1.40;1.30;;;22.90;97.70;;;;;;6307085;22;19999;-77
2022/08/13 22:15:37;;;;;;;1.70;1.60;;;22.80;97.90;;;;;;6334105;22;20006;-78
2022/08/13 22:18:05;;;;;;;1.67;1.58;;;22.70;98.10;;;;;;6307311;22;20090;-79
2022/08/13 22:20:32;;;;;;;2.20;1.80;;;22.70;98.40;;;;;;6335385;22;20006;-77
2022/08/13 22:22:58;;;;;;;1.48;1.30;;;22.80;98.60;;;;;;6334756;22;20086;-76
2022/08/13 22:25:24;;;;;;;1.77;1.42;;;22.70;98.40;;;;;;6334470;22;20052;-76
2022/08/13 22:27:50;;;;;;;1.23;1.10;;;22.60;98.80;;;;;;6333757;22;20006;-76
2022/08/13 22:33:07;;;;;;;5.30;1.60;;;22.50;98.70;;;;;;6334035;22;20041;-75
2022/08/13 22:35:33;;;;;;;1.35;1.35;;;22.50;98.90;;;;;;6333708;22;20020;-75
2022/08/13 22:37:58;;;;;;;1.40;1.40;;;22.40;99.10;;;;;;6335141;22;20002;-77
2022/08/13 22:40:24;;;;;;;2.08;1.27;;;22.40;99.30;;;;;;6305953;22;20006;-77
2022/08/13 22:42:50;;;;;;;1.67;1.33;;;22.40;99.70;;;;;;6333591;22;19999;-76
2022/08/13 22:45:15;;;;;;;1.38;1.33;;;22.40;99.80;;;;;;6332598;22;20616;-76
2022/08/13 22:47:41;;;;;;;3.00;1.80;;;22.40;99.90;;;;;;6332816;22;19999;-76
2022/08/13 22:50:07;;;;;;;2.42;1.33;;;22.40;99.60;;;;;;6332194;22;19995;-77
2022/08/13 22:52:36;;;;;;;2.08;1.70;;;22.50;99.20;;;;;;6306428;22;20003;-76
2022/08/13 22:55:03;;;;;;;1.40;1.33;;;22.50;99.00;;;;;;6333756;22;20458;-77
2022/08/13 22:57:35;;;;;;;1.77;1.50;;;22.50;99.50;;;;;;6306732;22;20007;-77
2022/08/13 23:00:03;;;;;;;1.48;1.38;;;22.40;99.50;;;;;;6333733;22;20003;-76
2022/08/13 23:02:28;;;;;;;3.28;1.40;;;22.40;98.90;;;;;;6305347;22;20002;-76
2022/08/13 23:04:55;;;;;;;1.33;1.33;;;22.40;99.40;;;;;;6335203;22;20009;-76
2022/08/13 23:07:21;;;;;;;1.83;1.70;;;22.30;99.40;;;;;;6306757;22;20033;-76
2022/08/13 23:09:47;;;;;;;1.50;1.40;;;22.30;99.50;;;;;;6334270;22;20429;-77
2022/08/13 23:12:15;;;;;;;1.35;1.25;;;22.30;99.90;;;;;;6308193;22;20077;-76
2022/08/13 23:14:41;;;;;;;2.13;1.40;;;22.20;99.60;;;;;;6334472;22;20010;-76
2022/08/13 23:17:07;;;;;;;1.67;1.58;;;22.20;99.70;;;;;;6334349;22;20037;-76
2022/08/13 23:19:32;;;;;;;1.75;1.70;;;22.20;99.90;;;;;;6332183;22;19998;-76
2022/08/13 23:22:00;;;;;;;1.33;1.33;;;22.10;99.70;;;;;;6332654;22;20003;-76
2022/08/13 23:24:26;;;;;;;1.70;1.60;;;22.10;99.90;;;;;;6307596;22;20333;-77
2022/08/13 23:26:55;;;;;;;1.70;1.60;;;22.00;99.90;;;;;;6306106;22;20102;-76
2022/08/13 23:29:22;;;;;;;1.38;1.30;;;22.00;99.90;;;;;;6332242;22;19999;-76
2022/08/13 23:31:48;;;;;;;1.23;1.20;;;21.90;99.90;;;;;;6305704;22;20029;-76
2022/08/13 23:34:18;;;;;;;2.40;1.73;;;21.90;99.90;;;;;;6333853;22;20002;-76
2022/08/13 23:36:44;;;;;;;1.95;1.55;;;21.90;99.90;;;;;;6333569;22;20468;-76
2022/08/13 23:39:09;;;;;;;1.27;1.20;;;21.90;99.90;;;;;;6336864;22;19998;-75
2022/08/13 23:41:35;;;;;;;1.40;1.40;;;21.90;99.90;;;;;;6339766;22;20002;-79
2022/08/13 23:44:01;;;;;;;1.55;1.52;;;21.80;99.90;;;;;;6311990;22;20006;-79
2022/08/13 23:46:27;;;;;;;5.07;1.42;;;21.90;99.90;;;;;;6339529;22;19995;-80
2022/08/13 23:48:52;;;;;;;1.48;1.38;;;21.90;99.90;;;;;;6339471;22;20416;-79
2022/08/13 23:51:18;;;;;;;1.85;1.75;;;21.90;99.90;;;;;;6311936;22;20003;-80
2022/08/13 23:53:44;;;;;;;1.50;1.50;;;21.90;99.90;;;;;;6339488;22;19999;-80
2022/08/13 23:56:10;;;;;;;1.95;1.60;;;21.80;99.90;;;;;;6339491;22;20373;-80
2022/08/13 23:58:35;;;;;;;1.60;1.50;;;21.80;99.90;;;;;;6339743;22;20006;-80
